Time;durP1;ratioP1;P1;durP2;ratioP2;P2;SDS_P1;SDS_P2;PMS_P1;PMS_P2;Temp;Humidity;BMP_temperature;BMP_pressure;BME280_temperature;BME280_humidity;BME280_pressure;Samples;Min_cycle;Max_cycle;Signal;HPM_P1;HPM_P2
2022/07/16 00:02:38;;;;;;;9.18;6.28;;;15.90;99.90;;;;;;5086065;28;20052;-60
2022/07/16 00:05:06;;;;;;;6.82;5.35;;;15.90;99.90;;;;;;5073214;28;20098;-60
2022/07/16 00:07:33;;;;;;;8.25;6.20;;;15.80;99.90;;;;;;5073257;28;20370;-60
2022/07/16 00:09:59;;;;;;;9.45;5.93;;;15.70;99.90;;;;;;5073194;28;20056;-59
2022/07/16 00:12:26;;;;;;;8.20;6.40;;;15.60;99.90;;;;;;5065594;28;20040;-60
2022/07/16 00:14:53;;;;;;;10.50;6.72;;;15.50;99.90;;;;;;5081951;28;20052;-60
2022/07/16 00:17:20;;;;;;;11.48;6.93;;;15.50;99.90;;;;;;5093105;28;20115;-59
2022/07/16 00:19:47;;;;;;;11.88;6.97;;;15.50;99.90;;;;;;5093345;28;20055;-60
2022/07/16 00:22:14;;;;;;;10.23;6.32;;;15.50;99.90;;;;;;5083885;28;20041;-60
2022/07/16 00:24:40;;;;;;;12.70;7.10;;;15.50;99.90;;;;;;5077987;28;20043;-59
2022/07/16 00:27:07;;;;;;;8.27;6.60;;;15.40;99.90;;;;;;5093117;28;20067;-60
2022/07/16 00:29:34;;;;;;;8.50;6.72;;;15.40;99.90;;;;;;5075187;28;20059;-60
2022/07/16 00:32:01;;;;;;;9.05;6.07;;;15.30;99.90;;;;;;5076685;28;20542;-59
2022/07/16 00:34:28;;;;;;;11.85;6.32;;;15.20;99.90;;;;;;5084586;28;20052;-60
2022/07/16 00:36:54;;;;;;;10.30;7.10;;;15.20;99.90;;;;;;5093034;28;20044;-59
2022/07/16 00:39:21;;;;;;;10.30;6.13;;;15.30;99.90;;;;;;5092759;28;20043;-59
2022/07/16 00:41:49;;;;;;;10.38;6.63;;;15.30;99.90;;;;;;5075550;28;20045;-60
2022/07/16 00:44:18;;;;;;;10.40;6.60;;;15.30;99.90;;;;;;5084590;28;20043;-59
2022/07/16 00:46:46;;;;;;;10.35;6.53;;;15.40;99.90;;;;;;5092484;28;20040;-59
2022/07/16 00:49:13;;;;;;;10.38;6.07;;;15.40;99.90;;;;;;5087346;28;20040;-60
2022/07/16 00:51:44;;;;;;;7.75;6.40;;;15.40;99.90;;;;;;5080494;28;20086;-60
2022/07/16 00:54:11;;;;;;;10.32;6.13;;;15.30;99.90;;;;;;5092544;28;20048;-59
2022/07/16 00:56:38;;;;;;;8.20;7.13;;;15.30;99.90;;;;;;5092176;28;20067;-59
2022/07/16 00:59:05;;;;;;;10.15;7.22;;;15.20;99.90;;;;;;5065213;28;20044;-60
2022/07/16 01:01:32;;;;;;;6.97;6.22;;;15.20;99.90;;;;;;5083366;28;20113;-59
2022/07/16 01:03:59;;;;;;;;;;;15.10;99.90;;;;;;5092774;28;20039;-59
2022/07/16 01:06:28;;;;;;;10.38;6.25;;;15.20;99.90;;;;;;5085340;28;19978;-59
2022/07/16 01:08:55;;;;;;;7.80;6.18;;;15.20;99.90;;;;;;5081206;28;20063;-59
2022/07/16 01:11:22;;;;;;;9.88;7.50;;;15.20;99.90;;;;;;5092113;28;20062;-59
2022/07/16 01:13:50;;;;;;;10.45;7.07;;;15.20;99.90;;;;;;5092141;28;20063;-59
2022/07/16 01:16:18;;;;;;;11.00;7.03;;;15.20;99.90;;;;;;5082119;28;20622;-60
2022/07/16 01:18:46;;;;;;;9.40;6.78;;;15.20;99.90;;;;;;5078518;28;20037;-60
2022/07/16 01:21:14;;;;;;;10.20;6.25;;;15.20;99.90;;;;;;5092122;28;20040;-59
2022/07/16 01:23:42;;;;;;;8.35;6.53;;;15.20;99.90;;;;;;5084447;28;20170;-59
2022/07/16 01:26:09;;;;;;;13.05;6.75;;;15.20;99.90;;;;;;5083720;28;20032;-60
2022/07/16 01:28:36;;;;;;;9.77;6.15;;;15.30;99.90;;;;;;5074122;28;20051;-60
2022/07/16 01:31:02;;;;;;;12.55;6.22;;;15.30;99.90;;;;;;5091803;28;20046;-59
2022/07/16 01:33:38;;;;;;;10.40;7.07;;;15.30;99.90;;;;;;5081096;28;20045;-59
2022/07/16 01:36:10;;;;;;;7.70;6.00;;;15.30;99.90;;;;;;5071934;28;20059;-59
2022/07/16 01:38:40;;;;;;;11.13;5.85;;;15.30;99.90;;;;;;5071779;28;20045;-60
2022/07/16 01:41:07;;;;;;;11.20;6.20;;;15.20;99.90;;;;;;5071214;28;20055;-59
2022/07/16 01:43:34;;;;;;;10.02;6.20;;;15.20;99.90;;;;;;5072525;28;20168;-60
2022/07/16 01:46:02;;;;;;;9.85;6.63;;;15.20;99.90;;;;;;5083468;28;20068;-59
2022/07/16 01:48:30;;;;;;;8.25;6.38;;;15.20;99.90;;;;;;5091669;28;20055;-60
2022/07/16 01:50:57;;;;;;;11.25;6.35;;;15.10;99.90;;;;;;5077284;28;20033;-59
2022/07/16 01:53:25;;;;;;;8.75;6.50;;;15.10;99.90;;;;;;5083021;28;20052;-59
2022/07/16 01:55:52;;;;;;;11.23;6.18;;;15.00;99.90;;;;;;5092056;28;20455;-60
2022/07/16 01:58:18;;;;;;;8.63;6.80;;;14.90;99.90;;;;;;5091706;28;20036;-59
2022/07/16 02:00:46;;;;;;;10.82;6.85;;;14.80;99.90;;;;;;5076802;28;20093;-59
2022/07/16 02:03:14;;;;;;;8.77;6.50;;;14.70;99.90;;;;;;5084373;28;20047;-59
2022/07/16 02:05:41;;;;;;;7.85;6.32;;;14.60;99.90;;;;;;5091735;28;20044;-60
2022/07/16 02:08:08;;;;;;;8.77;6.75;;;14.60;99.90;;;;;;5090697;28;20408;-59
2022/07/16 02:10:35;;;;;;;10.57;6.38;;;14.60;99.90;;;;;;5080283;28;20095;-59
2022/07/16 02:13:03;;;;;;;11.15;6.95;;;14.60;99.90;;;;;;5091395;28;20036;-59
2022/07/16 02:15:30;;;;;;;12.95;6.45;;;14.50;99.90;;;;;;5091385;28;20054;-59
2022/07/16 02:17:58;;;;;;;10.23;6.50;;;14.50;99.90;;;;;;5089460;28;20420;-59
2022/07/16 02:20:24;;;;;;;12.15;7.00;;;14.50;99.90;;;;;;5073658;28;20048;-59
2022/07/16 02:22:55;;;;;;;10.27;7.10;;;14.50;99.90;;;;;;5089828;28;20426;-59
2022/07/16 02:25:22;;;;;;;10.27;6.57;;;14.50;99.90;;;;;;5091623;28;20035;-59
2022/07/16 02:28:07;;;;;;;11.30;6.50;;;14.40;99.90;;;;;;5085064;28;20036;-59
2022/07/16 02:30:46;;;;;;;9.27;6.50;;;14.40;99.90;;;;;;5082504;28;20114;-59
2022/07/16 02:33:15;;;;;;;11.60;6.78;;;14.40;99.90;;;;;;5091508;28;20063;-59
2022/07/16 02:35:43;;;;;;;10.20;6.25;;;14.40;99.90;;;;;;5087675;28;20052;-59
2022/07/16 02:38:11;;;;;;;10.02;6.95;;;14.50;99.90;;;;;;5082911;28;20052;-59
2022/07/16 02:40:39;;;;;;;11.43;6.65;;;14.50;99.90;;;;;;5090833;28;20512;-59
2022/07/16 02:43:07;;;;;;;8.88;6.60;;;14.50;99.90;;;;;;5073474;28;20467;-59
2022/07/16 02:45:36;;;;;;;8.68;6.50;;;14.40;99.90;;;;;;5061139;28;20110;-59
2022/07/16 02:48:03;;;;;;;12.70;7.38;;;14.50;99.90;;;;;;5082019;28;20455;-59
2022/07/16 02:50:30;;;;;;;10.68;7.13;;;14.40;99.90;;;;;;5090884;28;20072;-60
2022/07/16 02:52:57;;;;;;;10.15;6.55;;;14.40;99.90;;;;;;5091285;28;20489;-59
2022/07/16 02:55:24;;;;;;;8.25;6.60;;;14.40;99.90;;;;;;5076395;28;20056;-59
2022/07/16 02:57:51;;;;;;;10.15;7.25;;;14.30;99.90;;;;;;5089012;28;20040;-59
2022/07/16 03:00:18;;;;;;;9.50;6.68;;;14.30;99.90;;;;;;5090768;28;20403;-59
2022/07/16 03:02:45;;;;;;;8.93;6.68;;;14.30;99.90;;;;;;5091340;28;20044;-59
2022/07/16 03:05:13;;;;;;;8.50;6.97;;;14.40;99.90;;;;;;5076637;28;20060;-59
2022/07/16 03:07:40;;;;;;;8.85;6.38;;;14.40;99.90;;;;;;5087493;28;20052;-59
2022/07/16 03:10:08;;;;;;;10.60;6.65;;;14.40;99.90;;;;;;5090817;28;20090;-59
2022/07/16 03:12:36;;;;;;;11.77;7.15;;;14.30;99.90;;;;;;5083313;28;20102;-59
2022/07/16 03:15:03;;;;;;;;;;;14.30;99.90;;;;;;5082460;28;20036;-59
2022/07/16 03:17:30;;;;;;;13.32;6.45;;;14.20;99.90;;;;;;5090824;28;19920;-59
2022/07/16 03:19:57;;;;;;;;;;;14.10;99.90;;;;;;5092861;28;20043;-59
2022/07/16 03:22:24;;;;;;;10.25;6.80;;;14.10;99.90;;;;;;5077902;28;19982;-59
2022/07/16 03:24:50;;;;;;;10.02;7.68;;;14.10;99.90;;;;;;5092495;28;20040;-59
2022/07/16 03:27:17;;;;;;;9.60;7.30;;;14.10;99.90;;;;;;5094459;28;20055;-60
2022/07/16 03:29:44;;;;;;;10.35;7.43;;;14.10;99.90;;;;;;5090648;28;20052;-59
2022/07/16 03:32:11;;;;;;;11.75;7.82;;;14.10;99.90;;;;;;5085716;28;20052;-59
2022/07/16 03:34:37;;;;;;;10.10;6.82;;;14.10;99.90;;;;;;5094190;28;20039;-59
2022/07/16 03:37:04;;;;;;;11.13;6.97;;;14.20;99.90;;;;;;5092638;28;20488;-59
2022/07/16 03:39:31;;;;;;;9.63;7.20;;;14.10;99.90;;;;;;5077701;28;20051;-59
2022/07/16 03:41:58;;;;;;;11.52;6.95;;;14.10;99.90;;;;;;5093116;28;20442;-59
2022/07/16 03:44:25;;;;;;;9.13;6.72;;;14.00;99.90;;;;;;5094146;28;20553;-60
2022/07/16 03:46:51;;;;;;;10.40;6.85;;;13.90;99.90;;;;;;5077642;28;20047;-59
2022/07/16 03:49:18;;;;;;;13.52;7.40;;;13.90;99.90;;;;;;5087768;28;20051;-59
2022/07/16 03:51:45;;;;;;;11.68;7.75;;;14.00;99.90;;;;;;5093998;28;20036;-59
2022/07/16 03:54:12;;;;;;;13.15;7.65;;;14.00;99.90;;;;;;5077099;28;20036;-59
2022/07/16 03:56:39;;;;;;;11.35;7.00;;;14.10;99.90;;;;;;5067566;28;20040;-59
2022/07/16 03:59:05;;;;;;;11.15;7.28;;;14.10;99.90;;;;;;5094007;28;20044;-59
2022/07/16 04:01:32;;;;;;;10.82;7.55;;;14.10;99.90;;;;;;5092868;28;20101;-59
2022/07/16 04:03:59;;;;;;;10.95;7.50;;;14.20;99.90;;;;;;5083891;28;20055;-60
2022/07/16 04:06:26;;;;;;;9.88;7.03;;;14.20;99.90;;;;;;5093617;28;20036;-59
2022/07/16 04:08:52;;;;;;;12.30;7.13;;;14.20;99.90;;;;;;5093708;28;20490;-59
2022/07/16 04:11:20;;;;;;;9.30;6.80;;;14.20;99.90;;;;;;5076968;28;20055;-60
2022/07/16 04:13:47;;;;;;;8.50;6.18;;;14.30;99.90;;;;;;5091242;28;20072;-59
2022/07/16 04:16:13;;;;;;;7.22;6.03;;;14.30;99.90;;;;;;5093506;28;20161;-59
2022/07/16 04:18:40;;;;;;;10.13;6.75;;;14.20;99.90;;;;;;5084510;28;20048;-59
2022/07/16 04:21:07;;;;;;;10.38;6.72;;;14.20;99.90;;;;;;5085074;28;20047;-59
2022/07/16 04:23:34;;;;;;;9.90;6.40;;;14.20;99.90;;;;;;5093617;28;20059;-59
2022/07/16 04:26:01;;;;;;;10.60;6.18;;;14.20;99.90;;;;;;5078149;28;20040;-59
2022/07/16 04:32:42;;;;;;;11.05;5.70;;;14.30;99.90;;;;;;5052677;28;19961;-59
2022/07/16 04:35:11;;;;;;;8.82;6.00;;;14.40;99.90;;;;;;5053723;28;20045;-61
2022/07/16 04:37:38;;;;;;;11.10;6.05;;;14.50;99.90;;;;;;5043687;28;20037;-61
2022/07/16 04:40:05;;;;;;;;;;;14.50;99.90;;;;;;5061022;28;20055;-61
2022/07/16 04:42:32;;;;;;;8.07;5.78;;;14.60;99.90;;;;;;5052844;28;19970;-61
2022/07/16 04:45:00;;;;;;;7.55;6.03;;;14.60;99.90;;;;;;5055162;28;20041;-61
2022/07/16 04:47:27;;;;;;;9.13;6.13;;;14.70;99.90;;;;;;5046654;28;20184;-61
2022/07/16 04:49:54;;;;;;;9.73;5.82;;;14.60;99.90;;;;;;5072402;28;20045;-61
2022/07/16 04:52:21;;;;;;;10.98;6.20;;;14.60;99.90;;;;;;5071855;28;20405;-61
2022/07/16 04:54:47;;;;;;;8.48;5.90;;;14.60;99.90;;;;;;5063923;28;20049;-60
2022/07/16 04:57:14;;;;;;;11.10;5.80;;;14.70;99.90;;;;;;5072610;28;20435;-61
2022/07/16 04:59:41;;;;;;;10.65;6.50;;;14.70;99.90;;;;;;5072610;28;20055;-61
2022/07/16 05:04:53;;;;;;;8.82;6.70;;;14.80;99.90;;;;;;5070784;28;20055;-61
2022/07/16 05:07:20;;;;;;;9.98;6.75;;;15.00;99.90;;;;;;5054269;28;20408;-61
2022/07/16 05:09:46;;;;;;;9.23;6.28;;;15.00;99.90;;;;;;5068750;28;20040;-61
2022/07/16 05:12:13;;;;;;;11.13;6.50;;;15.20;99.90;;;;;;5064801;28;20040;-60
2022/07/16 05:14:40;;;;;;;8.90;6.68;;;15.30;99.90;;;;;;5072154;28;20052;-61
2022/07/16 05:17:06;;;;;;;14.43;7.90;;;15.30;99.90;;;;;;5072274;28;20052;-61
2022/07/16 05:19:33;;;;;;;8.75;7.47;;;15.40;99.90;;;;;;5068510;28;20123;-61
2022/07/16 05:22:00;;;;;;;14.02;7.20;;;15.40;99.90;;;;;;5063357;28;20056;-61
2022/07/16 05:24:27;;;;;;;10.75;6.97;;;15.40;99.90;;;;;;5071976;28;20052;-61
2022/07/16 05:26:53;;;;;;;14.00;7.85;;;15.50;99.90;;;;;;5071974;28;20527;-61
2022/07/16 05:29:20;;;;;;;10.48;7.30;;;15.50;99.90;;;;;;5064227;28;20048;-61
2022/07/16 05:31:47;;;;;;;13.93;7.90;;;15.70;99.90;;;;;;5069123;28;20493;-61
2022/07/16 05:34:13;;;;;;;9.88;7.07;;;15.70;99.90;;;;;;5067513;28;20048;-61
2022/07/16 05:36:40;;;;;;;8.00;6.88;;;15.80;99.90;;;;;;5065394;28;20036;-61
2022/07/16 05:39:07;;;;;;;10.80;7.03;;;15.80;99.90;;;;;;5070108;28;20408;-61
2022/07/16 05:41:34;;;;;;;8.93;6.72;;;15.80;99.90;;;;;;5052877;28;20465;-61
2022/07/16 05:44:01;;;;;;;13.70;7.57;;;15.80;99.90;;;;;;5066348;28;20056;-61
2022/07/16 05:46:28;;;;;;;;;;;15.90;99.90;;;;;;5057089;28;20386;-60
2022/07/16 05:48:55;;;;;;;10.65;7.28;;;16.00;99.90;;;;;;5051395;28;19928;-61
2022/07/16 05:51:21;;;;;;;10.35;7.28;;;16.00;99.90;;;;;;5051115;28;20049;-61
2022/07/16 05:53:48;;;;;;;11.10;7.10;;;16.10;99.90;;;;;;5060917;28;20037;-61
2022/07/16 05:56:15;;;;;;;10.07;6.93;;;16.30;99.90;;;;;;5070525;28;20098;-63
2022/07/16 05:58:42;;;;;;;13.85;7.25;;;16.30;99.90;;;;;;5070915;28;20064;-61
2022/07/16 06:01:09;;;;;;;9.77;7.13;;;16.40;99.90;;;;;;5069621;28;20044;-61
2022/07/16 06:03:36;;;;;;;;;;;16.40;99.90;;;;;;5062810;28;20057;-61
2022/07/16 06:06:03;;;;;;;8.98;7.50;;;16.50;99.90;;;;;;5071207;28;20412;-61
2022/07/16 06:08:30;;;;;;;12.70;7.40;;;16.60;99.90;;;;;;5070860;28;20055;-61
2022/07/16 06:10:58;;;;;;;11.05;7.32;;;16.70;99.90;;;;;;5059313;28;20056;-61
2022/07/16 06:13:25;;;;;;;11.38;6.95;;;16.80;99.90;;;;;;5065825;28;20040;-61
2022/07/16 06:15:52;;;;;;;9.25;6.72;;;16.70;99.90;;;;;;5070992;28;20501;-61
2022/07/16 06:18:19;;;;;;;10.73;6.30;;;16.80;99.90;;;;;;5049874;28;20389;-61
2022/07/16 06:20:46;;;;;;;8.95;5.32;;;16.80;99.90;;;;;;5065436;28;20047;-61
2022/07/16 06:23:12;;;;;;;5.75;4.60;;;16.90;99.90;;;;;;5070952;28;20127;-61
2022/07/16 06:25:40;;;;;;;6.38;4.85;;;17.00;99.90;;;;;;5064849;28;20493;-61
2022/07/16 06:28:06;;;;;;;7.82;4.60;;;17.10;99.90;;;;;;5067990;28;20040;-61
2022/07/16 06:30:33;;;;;;;6.85;4.50;;;17.20;99.90;;;;;;5070282;28;20482;-61
2022/07/16 06:33:00;;;;;;;9.52;4.80;;;17.30;99.90;;;;;;5071038;28;20128;-61
2022/07/16 06:35:27;;;;;;;9.45;4.78;;;17.40;99.90;;;;;;5069005;28;20416;-61
2022/07/16 06:37:54;;;;;;;9.35;5.10;;;17.50;99.90;;;;;;5060579;28;20056;-61
2022/07/16 06:40:20;;;;;;;5.85;4.25;;;17.60;99.90;;;;;;5070768;28;20033;-59
2022/07/16 06:42:47;;;;;;;8.27;4.38;;;17.60;99.90;;;;;;5071017;28;20049;-61
2022/07/16 06:45:14;;;;;;;5.82;4.65;;;17.70;99.90;;;;;;5070132;28;20047;-61
2022/07/16 06:47:41;;;;;;;8.50;5.00;;;17.80;99.90;;;;;;5062388;28;20079;-61
2022/07/16 06:50:08;;;;;;;10.30;4.78;;;18.00;99.90;;;;;;5070608;28;20045;-61
2022/07/16 06:52:34;;;;;;;6.53;3.50;;;18.00;99.90;;;;;;5071184;28;20040;-58
2022/07/16 06:55:01;;;;;;;8.68;3.72;;;18.20;99.90;;;;;;5063462;28;20083;-61
2022/07/16 06:57:28;;;;;;;8.60;4.30;;;18.20;99.90;;;;;;5069202;28;20040;-58
2022/07/16 06:59:55;;;;;;;7.30;3.45;;;18.40;99.90;;;;;;5074061;28;20056;-61
2022/07/16 07:02:21;;;;;;;4.90;3.40;;;18.50;99.90;;;;;;5073231;28;20032;-61
2022/07/16 07:04:48;;;;;;;5.68;4.18;;;18.40;99.90;;;;;;5066236;28;20051;-61
2022/07/16 07:07:15;;;;;;;7.90;3.60;;;18.60;99.90;;;;;;5074495;28;20098;-60
2022/07/16 07:09:42;;;;;;;5.70;3.85;;;18.70;99.90;;;;;;5074142;28;20047;-60
2022/07/16 07:12:09;;;;;;;5.72;3.42;;;18.90;99.90;;;;;;5067933;28;20039;-60
2022/07/16 07:14:36;;;;;;;5.28;3.33;;;19.00;99.90;;;;;;5073321;28;20401;-60
2022/07/16 07:17:03;;;;;;;7.10;3.33;;;19.10;99.90;;;;;;5074131;28;20054;-60
2022/07/16 07:19:29;;;;;;;8.85;3.35;;;19.10;99.90;;;;;;5073481;28;20059;-60
2022/07/16 07:21:59;;;;;;;3.90;3.42;;;19.10;99.90;;;;;;5063545;28;20044;-60
2022/07/16 07:24:26;;;;;;;4.38;3.03;;;19.20;99.90;;;;;;5068500;28;20061;-60
2022/07/16 07:27:12;;;;;;;4.20;3.05;;;19.10;99.90;;;;;;5074470;28;20099;-60
2022/07/16 07:29:39;;;;;;;6.20;3.17;;;19.20;99.90;;;;;;5073176;28;20102;-60
2022/07/16 07:32:06;;;;;;;11.13;3.03;;;19.30;99.90;;;;;;5044243;28;20037;-60
2022/07/16 07:34:32;;;;;;;6.70;3.15;;;19.30;99.90;;;;;;5069748;28;20033;-60
2022/07/16 07:36:59;;;;;;;5.95;2.78;;;19.50;99.90;;;;;;5074112;28;20508;-60
2022/07/16 07:39:26;;;;;;;6.72;2.60;;;19.50;99.90;;;;;;5072273;28;20048;-60
2022/07/16 07:41:52;;;;;;;3.53;2.85;;;19.50;99.90;;;;;;5065264;28;20044;-60
2022/07/16 07:44:19;;;;;;;8.18;3.22;;;19.60;99.90;;;;;;5074072;28;20068;-60
2022/07/16 07:46:46;;;;;;;5.68;2.70;;;19.60;99.90;;;;;;5073830;28;20447;-60
2022/07/16 07:49:13;;;;;;;5.30;2.95;;;19.70;99.90;;;;;;5063751;28;20052;-60
2022/07/16 07:51:39;;;;;;;6.50;3.03;;;19.90;99.90;;;;;;5069820;28;20546;-61
2022/07/16 07:54:06;;;;;;;4.25;2.47;;;20.00;99.90;;;;;;5074088;28;20094;-60
2022/07/16 07:56:33;;;;;;;4.45;2.67;;;20.00;99.90;;;;;;5070449;28;20496;-60
2022/07/16 07:59:00;;;;;;;5.90;2.85;;;20.10;99.90;;;;;;5065249;28;20115;-60
2022/07/16 08:01:26;;;;;;;4.38;2.45;;;20.00;99.90;;;;;;5073163;28;20059;-60
2022/07/16 08:03:53;;;;;;;4.53;2.40;;;20.10;99.90;;;;;;5072163;28;20045;-61
2022/07/16 08:06:20;;;;;;;7.38;2.92;;;20.20;99.90;;;;;;5063867;28;20520;-60
2022/07/16 08:08:47;;;;;;;8.77;2.40;;;20.20;99.90;;;;;;5073369;28;20044;-60
2022/07/16 08:11:13;;;;;;;5.90;2.53;;;20.30;99.90;;;;;;5072942;28;20040;-60
2022/07/16 08:13:40;;;;;;;3.38;2.47;;;20.30;99.90;;;;;;5061812;28;20045;-60
2022/07/16 08:16:27;;;;;;;6.45;3.17;;;20.40;99.90;;;;;;5073401;28;20045;-61
2022/07/16 08:18:54;;;;;;;4.63;2.63;;;20.60;99.90;;;;;;5073232;28;20063;-60
2022/07/16 08:21:21;;;;;;;2.72;2.42;;;20.70;99.90;;;;;;5060814;28;20057;-60
2022/07/16 08:26:33;;;;;;;4.13;2.53;;;20.80;99.90;;;;;;5055206;28;20063;-60
2022/07/16 08:29:00;;;;;;;5.10;2.50;;;21.00;99.90;;;;;;5066203;28;20501;-60
2022/07/16 08:31:27;;;;;;;3.88;2.28;;;21.00;99.90;;;;;;5067335;28;20036;-60
2022/07/16 08:33:54;;;;;;;;;;;21.00;99.90;;;;;;5073524;28;20127;-60
2022/07/16 08:36:21;;;;;;;7.32;2.60;;;21.10;99.90;;;;;;5070712;28;19928;-60
2022/07/16 08:38:48;;;;;;;4.38;2.63;;;21.30;99.90;;;;;;5061919;28;20048;-60
2022/07/16 08:41:15;;;;;;;;;;;21.50;99.90;;;;;;5073041;28;20056;-60
2022/07/16 08:43:42;;;;;;;4.10;2.25;;;21.60;99.90;;;;;;5072854;28;19920;-60
2022/07/16 08:46:10;;;;;;;4.53;2.80;;;21.60;99.90;;;;;;5067150;28;20057;-60
2022/07/16 08:48:37;;;;;;;8.43;2.25;;;21.80;99.90;;;;;;5068873;28;20505;-60
2022/07/16 08:51:08;;;;;;;6.22;2.72;;;21.80;99.90;;;;;;5072308;28;20507;-60
2022/07/16 08:53:37;;;;;;;5.85;2.25;;;21.90;99.90;;;;;;5070813;28;20041;-60
2022/07/16 08:56:04;;;;;;;4.53;1.95;;;21.80;99.90;;;;;;5060788;28;20040;-60
2022/07/16 08:58:32;;;;;;;7.80;2.00;;;21.90;99.90;;;;;;5052420;28;20103;-60
2022/07/16 09:00:59;;;;;;;4.88;2.50;;;21.80;99.90;;;;;;5052044;28;20049;-61
2022/07/16 09:03:26;;;;;;;5.38;2.45;;;21.80;99.90;;;;;;5058713;28;20040;-60
2022/07/16 09:05:54;;;;;;;7.93;2.28;;;21.90;99.90;;;;;;5064010;28;20049;-60
2022/07/16 09:08:21;;;;;;;4.03;2.20;;;22.00;99.90;;;;;;5072312;28;20051;-60
2022/07/16 09:10:48;;;;;;;4.38;1.92;;;22.00;99.90;;;;;;5070802;28;20044;-60
2022/07/16 09:13:15;;;;;;;2.60;2.17;;;22.10;99.90;;;;;;5060270;28;20513;-60
2022/07/16 09:15:43;;;;;;;6.82;2.60;;;22.10;99.90;;;;;;5069099;28;20067;-60
2022/07/16 09:18:21;;;;;;;5.68;2.42;;;22.20;99.90;;;;;;5063643;28;20036;-60
2022/07/16 09:21:02;;;;;;;3.88;2.45;;;22.10;99.90;;;;;;5069418;28;20512;-60
2022/07/16 09:23:32;;;;;;;4.95;2.22;;;22.20;99.90;;;;;;5067053;28;20447;-60
2022/07/16 09:26:11;;;;;;;4.18;2.67;;;22.30;99.90;;;;;;5072013;28;20044;-60
2022/07/16 09:29:02;;;;;;;3.72;2.20;;;22.30;99.90;;;;;;5066967;28;20482;-60
2022/07/16 09:31:40;;;;;;;5.45;2.10;;;22.50;99.90;;;;;;5059784;28;20123;-60
2022/07/16 09:34:13;;;;;;;3.92;2.40;;;22.50;99.90;;;;;;5051961;28;20099;-60
2022/07/16 09:36:54;;;;;;;4.43;2.70;;;22.50;99.90;;;;;;5051637;28;20033;-60
2022/07/16 09:39:20;;;;;;;3.30;2.20;;;22.50;99.90;;;;;;5063381;28;20056;-60
2022/07/16 09:41:47;;;;;;;3.28;2.15;;;22.60;99.90;;;;;;5071429;28;20059;-61
2022/07/16 09:44:17;;;;;;;6.35;2.65;;;22.60;99.90;;;;;;5068385;28;20055;-60
2022/07/16 09:47:10;;;;;;;5.15;2.50;;;22.70;99.90;;;;;;5060787;28;20511;-60
2022/07/16 09:49:39;;;;;;;6.20;2.50;;;22.70;99.90;;;;;;5071635;28;20112;-60
2022/07/16 09:52:07;;;;;;;4.05;2.95;;;22.80;99.90;;;;;;5071007;28;20033;-61
2022/07/16 09:54:36;;;;;;;7.93;2.90;;;22.70;99.90;;;;;;5070472;28;20501;-58
2022/07/16 09:57:07;;;;;;;4.20;2.50;;;22.70;99.00;;;;;;5063276;28;20381;-60
2022/07/16 09:59:34;;;;;;;5.65;2.42;;;22.80;99.90;;;;;;5071619;28;20094;-60
2022/07/16 10:02:21;;;;;;;6.90;3.08;;;22.70;99.90;;;;;;5071532;28;20049;-60
2022/07/16 10:04:48;;;;;;;8.38;2.60;;;22.80;99.90;;;;;;5064092;28;20075;-61
2022/07/16 10:07:17;;;;;;;;;;;22.80;99.80;;;;;;5064961;28;20064;-60
2022/07/16 10:09:44;;;;;;;;;;;22.70;99.90;;;;;;5071760;28;19951;-61
2022/07/16 10:12:13;;;;;;;4.60;3.10;;;22.70;99.90;;;;;;5067649;28;20405;-60
2022/07/16 10:14:46;;;;;;;7.32;2.80;;;22.70;99.90;;;;;;5059383;28;20095;-60
2022/07/16 10:17:35;;;;;;;5.20;3.95;;;22.70;99.90;;;;;;5071435;28;20501;-61
2022/07/16 10:20:09;;;;;;;8.07;3.13;;;23.00;99.90;;;;;;5070919;28;20044;-60
2022/07/16 10:22:39;;;;;;;6.72;3.55;;;23.20;99.90;;;;;;5062921;28;20048;-60
2022/07/16 10:25:16;;;;;;;4.57;2.47;;;23.20;99.90;;;;;;5051283;28;20048;-60
2022/07/16 10:27:44;;;;;;;6.10;2.50;;;23.30;99.90;;;;;;5033513;28;20052;-58
2022/07/16 10:34:14;;;;;;;5.65;2.72;;;23.00;99.90;;;;;;5072846;28;20068;-61
2022/07/16 10:36:53;;;;;;;4.72;2.90;;;23.10;99.40;;;;;;5072718;28;20068;-61
2022/07/16 10:39:22;;;;;;;4.95;3.00;;;23.10;99.90;;;;;;5081755;28;20045;-61
2022/07/16 10:41:51;;;;;;;6.25;2.80;;;23.00;99.80;;;;;;5057183;28;20382;-61
2022/07/16 10:44:20;;;;;;;9.50;3.00;;;23.00;99.90;;;;;;5075336;28;20052;-61
2022/07/16 10:47:01;;;;;;;2.75;2.25;;;23.20;99.20;;;;;;5067680;28;20057;-61
2022/07/16 10:49:30;;;;;;;4.72;3.08;;;23.20;99.90;;;;;;5086877;28;20044;-62
2022/07/16 10:52:05;;;;;;;4.78;2.80;;;23.30;99.90;;;;;;5094725;28;20423;-61
2022/07/16 10:54:35;;;;;;;10.80;3.30;;;23.50;99.90;;;;;;5081070;28;20047;-61
2022/07/16 10:57:05;;;;;;;5.15;2.88;;;23.50;99.70;;;;;;5085968;28;20048;-61
2022/07/16 10:59:43;;;;;;;4.03;2.88;;;23.60;99.90;;;;;;5095093;28;20040;-61
2022/07/16 11:02:12;;;;;;;6.05;3.03;;;23.40;98.80;;;;;;5088612;28;20044;-61
2022/07/16 11:04:45;;;;;;;8.25;3.20;;;23.30;99.90;;;;;;5077706;28;20494;-61
2022/07/16 11:07:14;;;;;;;6.22;2.80;;;23.50;99.90;;;;;;5076270;28;20055;-61
2022/07/16 11:09:44;;;;;;;3.83;3.08;;;23.60;99.90;;;;;;5056635;28;20045;-61
2022/07/16 11:12:15;;;;;;;4.57;3.20;;;23.70;99.90;;;;;;5074958;28;20044;-61
2022/07/16 11:14:48;;;;;;;8.02;3.33;;;23.80;99.90;;;;;;5091631;28;20524;-61
2022/07/16 11:17:17;;;;;;;3.95;2.90;;;24.00;99.60;;;;;;5094816;28;20053;-61
2022/07/16 11:19:49;;;;;;;6.30;3.25;;;24.20;98.40;;;;;;5080455;28;20051;-61
2022/07/16 11:22:20;;;;;;;4.00;3.10;;;24.20;99.50;;;;;;5094959;28;20385;-61
2022/07/16 11:24:53;;;;;;;3.92;3.17;;;24.20;98.90;;;;;;5094800;28;20056;-61
2022/07/16 11:27:33;;;;;;;3.50;2.80;;;24.20;99.80;;;;;;5078415;28;20051;-61
2022/07/16 11:30:03;;;;;;;4.80;2.95;;;24.00;98.50;;;;;;5085672;28;20093;-61
2022/07/16 11:32:30;;;;;;;8.80;2.97;;;24.00;99.50;;;;;;5094438;28;20100;-61
2022/07/16 11:35:04;;;;;;;4.90;2.67;;;24.00;99.70;;;;;;5085475;28;20115;-61
2022/07/16 11:37:49;;;;;;;4.03;2.92;;;23.90;99.80;;;;;;5089800;28;20051;-61
2022/07/16 11:40:35;;;;;;;5.25;3.22;;;23.90;98.70;;;;;;5093723;28;20052;-61
2022/07/16 11:43:02;;;;;;;5.30;2.72;;;24.10;99.70;;;;;;5085374;28;20071;-61
2022/07/16 11:45:39;;;;;;;9.18;3.15;;;24.10;99.30;;;;;;5085845;28;20105;-61
2022/07/16 11:48:14;;;;;;;3.85;3.13;;;24.40;99.30;;;;;;5094002;28;20047;-61
2022/07/16 11:50:42;;;;;;;5.10;3.30;;;24.50;99.60;;;;;;5093808;28;20086;-61
2022/07/16 11:53:11;;;;;;;6.55;3.10;;;24.40;97.90;;;;;;5074875;28;20536;-61
2022/07/16 11:55:45;;;;;;;3.13;2.80;;;24.50;98.40;;;;;;5090399;28;20048;-61
2022/07/16 11:58:15;;;;;;;5.63;3.42;;;24.50;98.70;;;;;;5093835;28;20044;-61
2022/07/16 12:00:46;;;;;;;6.88;3.05;;;24.60;99.20;;;;;;5081955;28;20048;-61
2022/07/16 12:03:13;;;;;;;4.72;2.92;;;24.50;99.10;;;;;;5086768;28;20063;-61
2022/07/16 12:05:40;;;;;;;6.28;3.15;;;24.60;98.10;;;;;;5093893;28;20076;-61
2022/07/16 12:08:08;;;;;;;4.65;3.03;;;24.70;99.20;;;;;;5087462;28;20049;-61
2022/07/16 12:11:03;;;;;;;5.93;3.30;;;24.80;98.90;;;;;;5082290;28;20037;-61
2022/07/16 12:13:30;;;;;;;6.18;3.10;;;24.70;97.60;;;;;;5093562;28;20408;-61
2022/07/16 12:16:01;;;;;;;5.28;3.67;;;24.70;97.70;;;;;;5093758;28;20040;-61
2022/07/16 12:18:28;;;;;;;7.60;3.17;;;24.80;98.20;;;;;;5083310;28;20055;-61
2022/07/16 12:21:25;;;;;;;4.80;3.00;;;24.90;97.40;;;;;;5091935;28;20039;-61
2022/07/16 12:23:52;;;;;;;5.70;3.33;;;24.90;97.60;;;;;;5075464;28;20094;-61
2022/07/16 12:26:38;;;;;;;4.43;3.38;;;24.70;97.60;;;;;;5080343;28;20106;-61
2022/07/16 12:29:07;;;;;;;6.07;3.38;;;24.60;97.90;;;;;;5081220;28;20512;-61
2022/07/16 12:31:36;;;;;;;7.32;3.20;;;24.80;99.00;;;;;;5072849;28;20059;-61
2022/07/16 12:34:04;;;;;;;5.70;3.08;;;25.00;98.80;;;;;;5073064;28;20048;-61
2022/07/16 12:36:37;;;;;;;6.55;2.97;;;24.80;98.10;;;;;;5076878;28;20050;-61
2022/07/16 12:39:09;;;;;;;5.82;3.20;;;24.70;97.10;;;;;;5052996;28;20397;-61
2022/07/16 12:41:41;;;;;;;4.55;3.35;;;24.70;96.80;;;;;;5052579;28;20578;-61
2022/07/16 12:44:17;;;;;;;5.03;3.45;;;24.70;97.00;;;;;;5050439;28;20052;-61
2022/07/16 12:46:49;;;;;;;5.35;3.55;;;24.70;96.90;;;;;;5084604;28;20082;-61
2022/07/16 12:49:27;;;;;;;7.82;3.45;;;24.70;97.10;;;;;;5093079;28;20048;-61
2022/07/16 12:51:56;;;;;;;5.50;3.17;;;24.80;97.90;;;;;;5078234;28;20111;-61
2022/07/16 12:54:24;;;;;;;9.50;3.65;;;25.00;96.60;;;;;;5084447;28;20048;-61
2022/07/16 12:59:37;;;;;;;5.50;3.45;;;25.00;96.90;;;;;;5084779;28;20048;-61
2022/07/16 13:02:07;;;;;;;5.75;3.35;;;24.90;96.40;;;;;;5083434;28;20044;-61
2022/07/16 13:04:34;;;;;;;6.90;3.78;;;25.00;97.00;;;;;;5092730;28;20036;-61
2022/07/16 13:07:03;;;;;;;6.22;3.47;;;24.90;96.60;;;;;;5092851;28;20126;-61
2022/07/16 13:09:30;;;;;;;6.30;3.22;;;25.00;96.00;;;;;;5081303;28;20119;-61
2022/07/16 13:11:56;;;;;;;4.88;3.10;;;25.10;96.90;;;;;;5091142;28;20040;-61